sensor_id;sensor_type;location;lat;lon;timestamp;P1;durP1;ratioP1;P2;durP2;ratioP2
13689;SDS011;6917;52.194;9.894;2023-11-19T00:01:31;0.30;;;0.30;;
13689;SDS011;6917;52.194;9.894;2023-11-19T00:03:57;0.20;;;0.20;;
13689;SDS011;6917;52.194;9.894;2023-11-19T00:06:23;0.10;;;0.10;;
13689;SDS011;6917;52.194;9.894;2023-11-19T00:08:48;0.40;;;0.40;;
13689;SDS011;6917;52.194;9.894;2023-11-19T00:11:15;0.10;;;0.10;;
13689;SDS011;6917;52.194;9.894;2023-11-19T00:13:40;0.37;;;0.37;;
13689;SDS011;6917;52.194;9.894;2023-11-19T00:16:06;1.13;;;0.33;;
13689;SDS011;6917;52.194;9.894;2023-11-19T00:18:32;0.37;;;0.30;;
13689;SDS011;6917;52.194;9.894;2023-11-19T00:20:57;0.30;;;0.30;;
13689;SDS011;6917;52.194;9.894;2023-11-19T00:23:23;0.40;;;0.40;;
13689;SDS011;6917;52.194;9.894;2023-11-19T00:25:48;0.20;;;0.20;;
13689;SDS011;6917;52.194;9.894;2023-11-19T00:28:13;0.30;;;0.30;;
13689;SDS011;6917;52.194;9.894;2023-11-19T00:30:39;0.03;;;0.03;;
13689;SDS011;6917;52.194;9.894;2023-11-19T00:33:06;0.20;;;0.20;;
13689;SDS011;6917;52.194;9.894;2023-11-19T00:35:31;0.40;;;0.40;;
13689;SDS011;6917;52.194;9.894;2023-11-19T00:37:57;0.30;;;0.30;;
13689;SDS011;6917;52.194;9.894;2023-11-19T00:40:23;0.00;;;0.00;;
13689;SDS011;6917;52.194;9.894;2023-11-19T00:42:49;0.30;;;0.30;;
13689;SDS011;6917;52.194;9.894;2023-11-19T00:45:15;0.10;;;0.10;;
13689;SDS011;6917;52.194;9.894;2023-11-19T00:47:40;0.83;;;0.30;;
13689;SDS011;6917;52.194;9.894;2023-11-19T00:50:06;0.10;;;0.07;;
13689;SDS011;6917;52.194;9.894;2023-11-19T00:52:36;0.00;;;0.00;;
13689;SDS011;6917;52.194;9.894;2023-11-19T00:55:02;0.00;;;0.00;;
13689;SDS011;6917;52.194;9.894;2023-11-19T00:57:27;0.17;;;0.17;;
13689;SDS011;6917;52.194;9.894;2023-11-19T00:59:53;0.10;;;0.10;;
13689;SDS011;6917;52.194;9.894;2023-11-19T01:02:18;0.40;;;0.40;;
13689;SDS011;6917;52.194;9.894;2023-11-19T01:04:43;0.00;;;0.00;;
13689;SDS011;6917;52.194;9.894;2023-11-19T01:07:09;0.27;;;0.20;;
13689;SDS011;6917;52.194;9.894;2023-11-19T01:09:37;0.20;;;0.20;;
13689;SDS011;6917;52.194;9.894;2023-11-19T01:12:03;0.00;;;0.00;;
13689;SDS011;6917;52.194;9.894;2023-11-19T01:14:29;0.00;;;0.00;;
13689;SDS011;6917;52.194;9.894;2023-11-19T01:16:55;0.00;;;0.00;;
13689;SDS011;6917;52.194;9.894;2023-11-19T01:19:21;0.27;;;0.27;;
13689;SDS011;6917;52.194;9.894;2023-11-19T01:21:47;0.20;;;0.20;;
13689;SDS011;6917;52.194;9.894;2023-11-19T01:24:12;0.10;;;0.10;;
13689;SDS011;6917;52.194;9.894;2023-11-19T01:26:39;0.00;;;0.00;;
13689;SDS011;6917;52.194;9.894;2023-11-19T01:29:10;0.00;;;0.00;;
13689;SDS011;6917;52.194;9.894;2023-11-19T01:31:39;0.10;;;0.10;;
13689;SDS011;6917;52.194;9.894;2023-11-19T01:34:08;0.00;;;0.00;;
13689;SDS011;6917;52.194;9.894;2023-11-19T01:36:34;0.00;;;0.00;;
13689;SDS011;6917;52.194;9.894;2023-11-19T01:39:00;0.20;;;0.20;;
13689;SDS011;6917;52.194;9.894;2023-11-19T01:41:26;0.00;;;0.00;;
13689;SDS011;6917;52.194;9.894;2023-11-19T01:43:51;0.00;;;0.00;;
13689;SDS011;6917;52.194;9.894;2023-11-19T01:46:17;0.10;;;0.10;;
13689;SDS011;6917;52.194;9.894;2023-11-19T01:48:43;0.30;;;0.30;;
13689;SDS011;6917;52.194;9.894;2023-11-19T01:51:10;0.00;;;0.00;;
13689;SDS011;6917;52.194;9.894;2023-11-19T01:53:37;0.10;;;0.10;;
13689;SDS011;6917;52.194;9.894;2023-11-19T01:56:05;0.30;;;0.30;;
13689;SDS011;6917;52.194;9.894;2023-11-19T01:58:34;0.13;;;0.13;;
13689;SDS011;6917;52.194;9.894;2023-11-19T02:01:00;0.20;;;0.20;;
13689;SDS011;6917;52.194;9.894;2023-11-19T02:03:28;0.00;;;0.00;;
13689;SDS011;6917;52.194;9.894;2023-11-19T02:05:59;4.27;;;0.10;;
13689;SDS011;6917;52.194;9.894;2023-11-19T02:08:25;0.10;;;0.10;;
13689;SDS011;6917;52.194;9.894;2023-11-19T02:10:51;0.10;;;0.10;;
13689;SDS011;6917;52.194;9.894;2023-11-19T02:13:17;0.00;;;0.00;;
13689;SDS011;6917;52.194;9.894;2023-11-19T02:15:42;0.03;;;0.03;;
13689;SDS011;6917;52.194;9.894;2023-11-19T02:18:22;0.07;;;0.07;;
13689;SDS011;6917;52.194;9.894;2023-11-19T02:20:55;0.00;;;0.00;;
13689;SDS011;6917;52.194;9.894;2023-11-19T02:23:21;0.10;;;0.10;;
13689;SDS011;6917;52.194;9.894;2023-11-19T02:25:47;0.00;;;0.00;;
13689;SDS011;6917;52.194;9.894;2023-11-19T02:28:23;1.40;;;0.20;;
13689;SDS011;6917;52.194;9.894;2023-11-19T02:30:49;0.27;;;0.27;;
13689;SDS011;6917;52.194;9.894;2023-11-19T02:33:14;0.10;;;0.10;;
13689;SDS011;6917;52.194;9.894;2023-11-19T02:35:40;0.00;;;0.00;;
13689;SDS011;6917;52.194;9.894;2023-11-19T02:38:06;0.10;;;0.10;;
13689;SDS011;6917;52.194;9.894;2023-11-19T02:40:32;0.10;;;0.10;;
13689;SDS011;6917;52.194;9.894;2023-11-19T02:42:57;0.00;;;0.00;;
13689;SDS011;6917;52.194;9.894;2023-11-19T02:45:23;0.20;;;0.20;;
13689;SDS011;6917;52.194;9.894;2023-11-19T02:47:49;0.30;;;0.30;;
13689;SDS011;6917;52.194;9.894;2023-11-19T02:50:14;0.10;;;0.10;;
13689;SDS011;6917;52.194;9.894;2023-11-19T02:52:41;0.07;;;0.07;;
13689;SDS011;6917;52.194;9.894;2023-11-19T02:55:07;0.10;;;0.10;;
13689;SDS011;6917;52.194;9.894;2023-11-19T02:57:41;0.10;;;0.10;;
13689;SDS011;6917;52.194;9.894;2023-11-19T03:00:17;0.23;;;0.23;;
13689;SDS011;6917;52.194;9.894;2023-11-19T03:02:44;0.10;;;0.10;;
13689;SDS011;6917;52.194;9.894;2023-11-19T03:05:13;0.10;;;0.10;;
13689;SDS011;6917;52.194;9.894;2023-11-19T03:07:43;0.10;;;0.10;;
13689;SDS011;6917;52.194;9.894;2023-11-19T03:10:09;0.03;;;0.03;;
13689;SDS011;6917;52.194;9.894;2023-11-19T03:12:38;0.37;;;0.37;;
13689;SDS011;6917;52.194;9.894;2023-11-19T03:15:04;0.50;;;0.33;;
13689;SDS011;6917;52.194;9.894;2023-11-19T03:17:30;0.30;;;0.30;;
13689;SDS011;6917;52.194;9.894;2023-11-19T03:19:56;0.40;;;0.40;;
13689;SDS011;6917;52.194;9.894;2023-11-19T03:22:21;0.10;;;0.10;;
13689;SDS011;6917;52.194;9.894;2023-11-19T03:24:46;0.30;;;0.30;;
13689;SDS011;6917;52.194;9.894;2023-11-19T03:27:12;0.20;;;0.20;;
13689;SDS011;6917;52.194;9.894;2023-11-19T03:29:37;0.30;;;0.30;;
13689;SDS011;6917;52.194;9.894;2023-11-19T03:32:03;0.30;;;0.30;;
13689;SDS011;6917;52.194;9.894;2023-11-19T03:34:29;0.80;;;0.80;;
13689;SDS011;6917;52.194;9.894;2023-11-19T03:36:54;0.00;;;0.00;;
13689;SDS011;6917;52.194;9.894;2023-11-19T03:39:20;0.27;;;0.17;;
13689;SDS011;6917;52.194;9.894;2023-11-19T03:41:49;0.20;;;0.10;;
13689;SDS011;6917;52.194;9.894;2023-11-19T03:44:15;0.30;;;0.30;;
13689;SDS011;6917;52.194;9.894;2023-11-19T03:46:40;0.10;;;0.10;;
13689;SDS011;6917;52.194;9.894;2023-11-19T03:49:05;1.50;;;0.37;;
13689;SDS011;6917;52.194;9.894;2023-11-19T03:51:32;0.20;;;0.20;;
13689;SDS011;6917;52.194;9.894;2023-11-19T03:53:57;0.30;;;0.30;;
13689;SDS011;6917;52.194;9.894;2023-11-19T03:56:24;1.23;;;0.20;;
13689;SDS011;6917;52.194;9.894;2023-11-19T03:58:49;3.57;;;0.23;;
13689;SDS011;6917;52.194;9.894;2023-11-19T04:01:14;0.30;;;0.30;;
13689;SDS011;6917;52.194;9.894;2023-11-19T04:03:39;0.10;;;0.10;;
13689;SDS011;6917;52.194;9.894;2023-11-19T04:06:05;0.30;;;0.30;;
13689;SDS011;6917;52.194;9.894;2023-11-19T04:08:31;0.30;;;0.30;;
13689;SDS011;6917;52.194;9.894;2023-11-19T04:10:56;0.10;;;0.10;;
13689;SDS011;6917;52.194;9.894;2023-11-19T04:13:21;0.57;;;0.57;;
13689;SDS011;6917;52.194;9.894;2023-11-19T04:15:48;0.70;;;0.27;;
13689;SDS011;6917;52.194;9.894;2023-11-19T04:18:14;0.20;;;0.20;;
13689;SDS011;6917;52.194;9.894;2023-11-19T04:20:39;0.63;;;0.63;;
13689;SDS011;6917;52.194;9.894;2023-11-19T04:23:07;0.63;;;0.63;;
13689;SDS011;6917;52.194;9.894;2023-11-19T04:25:32;0.73;;;0.53;;
13689;SDS011;6917;52.194;9.894;2023-11-19T04:27:58;0.50;;;0.50;;
13689;SDS011;6917;52.194;9.894;2023-11-19T04:30:23;0.37;;;0.23;;
13689;SDS011;6917;52.194;9.894;2023-11-19T04:32:49;0.37;;;0.37;;
13689;SDS011;6917;52.194;9.894;2023-11-19T04:35:14;0.87;;;0.87;;
13689;SDS011;6917;52.194;9.894;2023-11-19T04:37:39;1.70;;;1.60;;
13689;SDS011;6917;52.194;9.894;2023-11-19T04:40:07;5.40;;;1.93;;
13689;SDS011;6917;52.194;9.894;2023-11-19T04:42:32;11.73;;;2.27;;
13689;SDS011;6917;52.194;9.894;2023-11-19T04:44:58;0.33;;;0.33;;
13689;SDS011;6917;52.194;9.894;2023-11-19T04:47:23;2.00;;;0.90;;
13689;SDS011;6917;52.194;9.894;2023-11-19T04:49:49;0.77;;;0.70;;
13689;SDS011;6917;52.194;9.894;2023-11-19T04:52:14;0.90;;;0.90;;
13689;SDS011;6917;52.194;9.894;2023-11-19T04:54:43;9.80;;;0.70;;
13689;SDS011;6917;52.194;9.894;2023-11-19T04:57:09;1.50;;;0.93;;
13689;SDS011;6917;52.194;9.894;2023-11-19T04:59:36;0.90;;;0.90;;
13689;SDS011;6917;52.194;9.894;2023-11-19T05:02:01;2.80;;;1.63;;
13689;SDS011;6917;52.194;9.894;2023-11-19T05:04:26;1.57;;;1.30;;
13689;SDS011;6917;52.194;9.894;2023-11-19T05:06:52;1.30;;;1.20;;
13689;SDS011;6917;52.194;9.894;2023-11-19T05:09:18;0.80;;;0.80;;
13689;SDS011;6917;52.194;9.894;2023-11-19T05:11:43;0.73;;;0.73;;
13689;SDS011;6917;52.194;9.894;2023-11-19T05:14:08;0.83;;;0.83;;
13689;SDS011;6917;52.194;9.894;2023-11-19T05:16:34;2.60;;;2.03;;
13689;SDS011;6917;52.194;9.894;2023-11-19T05:19:00;8.33;;;1.47;;
13689;SDS011;6917;52.194;9.894;2023-11-19T05:21:25;1.17;;;0.70;;
13689;SDS011;6917;52.194;9.894;2023-11-19T05:23:51;0.47;;;0.47;;
13689;SDS011;6917;52.194;9.894;2023-11-19T05:26:19;0.30;;;0.30;;
13689;SDS011;6917;52.194;9.894;2023-11-19T05:28:46;4.63;;;1.60;;
13689;SDS011;6917;52.194;9.894;2023-11-19T05:31:12;1.50;;;1.40;;
13689;SDS011;6917;52.194;9.894;2023-11-19T05:33:37;0.87;;;0.50;;
13689;SDS011;6917;52.194;9.894;2023-11-19T05:36:02;4.73;;;1.27;;
13689;SDS011;6917;52.194;9.894;2023-11-19T05:38:29;1.30;;;1.23;;
13689;SDS011;6917;52.194;9.894;2023-11-19T05:40:54;0.97;;;0.97;;
13689;SDS011;6917;52.194;9.894;2023-11-19T05:43:20;5.20;;;0.97;;
13689;SDS011;6917;52.194;9.894;2023-11-19T05:45:46;1.30;;;1.20;;
13689;SDS011;6917;52.194;9.894;2023-11-19T05:48:11;7.37;;;1.77;;
13689;SDS011;6917;52.194;9.894;2023-11-19T05:50:37;1.53;;;1.27;;
13689;SDS011;6917;52.194;9.894;2023-11-19T05:53:03;1.27;;;1.13;;
13689;SDS011;6917;52.194;9.894;2023-11-19T05:55:31;0.80;;;0.80;;
13689;SDS011;6917;52.194;9.894;2023-11-19T05:57:59;2.40;;;1.20;;
13689;SDS011;6917;52.194;9.894;2023-11-19T06:00:24;3.37;;;1.90;;
13689;SDS011;6917;52.194;9.894;2023-11-19T06:02:51;2.47;;;1.40;;
13689;SDS011;6917;52.194;9.894;2023-11-19T06:05:17;1.30;;;1.23;;
13689;SDS011;6917;52.194;9.894;2023-11-19T06:07:42;1.90;;;1.33;;
13689;SDS011;6917;52.194;9.894;2023-11-19T06:10:08;5.53;;;1.70;;
13689;SDS011;6917;52.194;9.894;2023-11-19T06:12:34;2.77;;;2.33;;
13689;SDS011;6917;52.194;9.894;2023-11-19T06:15:03;5.53;;;2.23;;
13689;SDS011;6917;52.194;9.894;2023-11-19T06:17:33;5.93;;;2.23;;
13689;SDS011;6917;52.194;9.894;2023-11-19T06:19:58;4.37;;;3.43;;
13689;SDS011;6917;52.194;9.894;2023-11-19T06:22:23;7.50;;;3.83;;
13689;SDS011;6917;52.194;9.894;2023-11-19T06:24:49;4.50;;;2.80;;
13689;SDS011;6917;52.194;9.894;2023-11-19T06:27:14;2.97;;;2.63;;
13689;SDS011;6917;52.194;9.894;2023-11-19T06:29:39;8.77;;;4.43;;
13689;SDS011;6917;52.194;9.894;2023-11-19T06:32:06;9.60;;;4.70;;
13689;SDS011;6917;52.194;9.894;2023-11-19T06:34:33;5.23;;;3.50;;
13689;SDS011;6917;52.194;9.894;2023-11-19T06:36:58;9.37;;;3.27;;
13689;SDS011;6917;52.194;9.894;2023-11-19T06:39:24;15.97;;;4.33;;
13689;SDS011;6917;52.194;9.894;2023-11-19T06:41:49;9.77;;;3.20;;
13689;SDS011;6917;52.194;9.894;2023-11-19T06:44:15;6.27;;;2.97;;
13689;SDS011;6917;52.194;9.894;2023-11-19T06:46:40;19.23;;;4.03;;
13689;SDS011;6917;52.194;9.894;2023-11-19T06:49:05;11.10;;;2.63;;
13689;SDS011;6917;52.194;9.894;2023-11-19T06:51:33;8.97;;;2.47;;
13689;SDS011;6917;52.194;9.894;2023-11-19T06:53:58;4.70;;;3.23;;
13689;SDS011;6917;52.194;9.894;2023-11-19T06:56:24;15.50;;;3.63;;
13689;SDS011;6917;52.194;9.894;2023-11-19T06:58:50;7.90;;;4.70;;
13689;SDS011;6917;52.194;9.894;2023-11-19T07:01:17;6.27;;;3.07;;
13689;SDS011;6917;52.194;9.894;2023-11-19T07:03:44;9.00;;;3.00;;
13689;SDS011;6917;52.194;9.894;2023-11-19T07:06:10;8.07;;;3.63;;
13689;SDS011;6917;52.194;9.894;2023-11-19T07:08:35;5.60;;;3.20;;
13689;SDS011;6917;52.194;9.894;2023-11-19T07:11:01;3.73;;;2.10;;
13689;SDS011;6917;52.194;9.894;2023-11-19T07:13:27;11.93;;;4.00;;
13689;SDS011;6917;52.194;9.894;2023-11-19T07:15:53;8.07;;;2.77;;
13689;SDS011;6917;52.194;9.894;2023-11-19T07:18:19;4.70;;;2.73;;
13689;SDS011;6917;52.194;9.894;2023-11-19T07:20:47;9.43;;;3.03;;
13689;SDS011;6917;52.194;9.894;2023-11-19T07:23:12;5.67;;;3.40;;
13689;SDS011;6917;52.194;9.894;2023-11-19T07:25:39;5.90;;;2.47;;
13689;SDS011;6917;52.194;9.894;2023-11-19T07:28:05;13.13;;;4.93;;
13689;SDS011;6917;52.194;9.894;2023-11-19T07:30:30;7.77;;;4.77;;
13689;SDS011;6917;52.194;9.894;2023-11-19T07:32:55;13.57;;;3.47;;
13689;SDS011;6917;52.194;9.894;2023-11-19T07:35:20;7.63;;;4.33;;
13689;SDS011;6917;52.194;9.894;2023-11-19T07:37:46;4.50;;;3.23;;
13689;SDS011;6917;52.194;9.894;2023-11-19T07:40:12;15.80;;;4.30;;
13689;SDS011;6917;52.194;9.894;2023-11-19T07:42:38;5.80;;;3.93;;
13689;SDS011;6917;52.194;9.894;2023-11-19T07:45:03;14.67;;;4.60;;
13689;SDS011;6917;52.194;9.894;2023-11-19T07:47:30;13.00;;;4.53;;
13689;SDS011;6917;52.194;9.894;2023-11-19T07:49:56;11.87;;;3.87;;
13689;SDS011;6917;52.194;9.894;2023-11-19T07:52:21;21.47;;;3.03;;
13689;SDS011;6917;52.194;9.894;2023-11-19T07:54:46;18.43;;;2.77;;
13689;SDS011;6917;52.194;9.894;2023-11-19T07:57:11;6.73;;;3.37;;
13689;SDS011;6917;52.194;9.894;2023-11-19T07:59:37;13.00;;;3.20;;
13689;SDS011;6917;52.194;9.894;2023-11-19T08:02:02;15.27;;;3.67;;
13689;SDS011;6917;52.194;9.894;2023-11-19T08:04:30;14.47;;;5.07;;
13689;SDS011;6917;52.194;9.894;2023-11-19T08:06:55;18.40;;;4.53;;
13689;SDS011;6917;52.194;9.894;2023-11-19T08:09:20;14.10;;;3.47;;
13689;SDS011;6917;52.194;9.894;2023-11-19T08:11:47;11.90;;;3.70;;
13689;SDS011;6917;52.194;9.894;2023-11-19T08:14:12;12.83;;;3.30;;
13689;SDS011;6917;52.194;9.894;2023-11-19T08:16:39;16.40;;;4.27;;
13689;SDS011;6917;52.194;9.894;2023-11-19T08:19:04;11.47;;;3.97;;
13689;SDS011;6917;52.194;9.894;2023-11-19T08:21:30;12.57;;;3.30;;
13689;SDS011;6917;52.194;9.894;2023-11-19T08:23:55;11.83;;;4.50;;
13689;SDS011;6917;52.194;9.894;2023-11-19T08:26:21;14.83;;;4.13;;
13689;SDS011;6917;52.194;9.894;2023-11-19T08:28:46;16.13;;;4.27;;
13689;SDS011;6917;52.194;9.894;2023-11-19T08:31:12;9.93;;;2.37;;
13689;SDS011;6917;52.194;9.894;2023-11-19T08:33:37;9.60;;;2.73;;
13689;SDS011;6917;52.194;9.894;2023-11-19T08:36:03;14.10;;;3.77;;
13689;SDS011;6917;52.194;9.894;2023-11-19T08:38:29;14.23;;;3.93;;
13689;SDS011;6917;52.194;9.894;2023-11-19T08:40:55;11.47;;;2.80;;
13689;SDS011;6917;52.194;9.894;2023-11-19T08:43:25;20.20;;;3.43;;
13689;SDS011;6917;52.194;9.894;2023-11-19T08:45:51;7.13;;;3.37;;
13689;SDS011;6917;52.194;9.894;2023-11-19T08:48:16;13.77;;;2.87;;
13689;SDS011;6917;52.194;9.894;2023-11-19T08:50:41;8.20;;;3.07;;
13689;SDS011;6917;52.194;9.894;2023-11-19T08:53:07;9.43;;;3.13;;
13689;SDS011;6917;52.194;9.894;2023-11-19T08:55:32;9.40;;;4.40;;
13689;SDS011;6917;52.194;9.894;2023-11-19T08:57:57;30.37;;;4.93;;
13689;SDS011;6917;52.194;9.894;2023-11-19T09:00:23;16.27;;;2.93;;
13689;SDS011;6917;52.194;9.894;2023-11-19T09:02:48;10.90;;;3.67;;
13689;SDS011;6917;52.194;9.894;2023-11-19T09:05:13;13.90;;;3.80;;
13689;SDS011;6917;52.194;9.894;2023-11-19T09:07:39;9.90;;;3.67;;
13689;SDS011;6917;52.194;9.894;2023-11-19T09:10:04;19.20;;;3.50;;
13689;SDS011;6917;52.194;9.894;2023-11-19T09:12:30;9.53;;;2.63;;
13689;SDS011;6917;52.194;9.894;2023-11-19T09:14:56;4.07;;;2.57;;
13689;SDS011;6917;52.194;9.894;2023-11-19T09:17:21;22.40;;;3.90;;
13689;SDS011;6917;52.194;9.894;2023-11-19T09:19:46;8.87;;;3.47;;
13689;SDS011;6917;52.194;9.894;2023-11-19T09:22:12;13.23;;;3.23;;
13689;SDS011;6917;52.194;9.894;2023-11-19T09:24:37;7.00;;;2.67;;
13689;SDS011;6917;52.194;9.894;2023-11-19T09:27:03;10.43;;;3.80;;
13689;SDS011;6917;52.194;9.894;2023-11-19T09:29:31;15.17;;;4.43;;
13689;SDS011;6917;52.194;9.894;2023-11-19T09:31:56;11.50;;;3.87;;
13689;SDS011;6917;52.194;9.894;2023-11-19T09:34:22;9.83;;;4.03;;
13689;SDS011;6917;52.194;9.894;2023-11-19T09:36:47;3.37;;;2.33;;
13689;SDS011;6917;52.194;9.894;2023-11-19T09:39:12;14.97;;;3.40;;
13689;SDS011;6917;52.194;9.894;2023-11-19T09:41:40;16.03;;;4.10;;
13689;SDS011;6917;52.194;9.894;2023-11-19T09:44:05;8.77;;;4.00;;
13689;SDS011;6917;52.194;9.894;2023-11-19T09:46:31;5.87;;;3.10;;
13689;SDS011;6917;52.194;9.894;2023-11-19T09:48:57;7.77;;;2.70;;
13689;SDS011;6917;52.194;9.894;2023-11-19T09:51:24;15.53;;;3.87;;
13689;SDS011;6917;52.194;9.894;2023-11-19T09:53:49;14.00;;;3.93;;
13689;SDS011;6917;52.194;9.894;2023-11-19T09:56:15;6.77;;;3.80;;
13689;SDS011;6917;52.194;9.894;2023-11-19T09:58:42;14.27;;;3.50;;
13689;SDS011;6917;52.194;9.894;2023-11-19T10:01:07;19.13;;;3.67;;
13689;SDS011;6917;52.194;9.894;2023-11-19T10:03:35;25.30;;;4.67;;
13689;SDS011;6917;52.194;9.894;2023-11-19T10:06:06;12.60;;;3.90;;
13689;SDS011;6917;52.194;9.894;2023-11-19T10:08:32;20.97;;;4.87;;
13689;SDS011;6917;52.194;9.894;2023-11-19T10:10:58;24.57;;;5.13;;
13689;SDS011;6917;52.194;9.894;2023-11-19T10:13:27;9.33;;;3.30;;
13689;SDS011;6917;52.194;9.894;2023-11-19T10:15:54;12.13;;;4.47;;
13689;SDS011;6917;52.194;9.894;2023-11-19T10:18:25;10.77;;;3.30;;
13689;SDS011;6917;52.194;9.894;2023-11-19T10:20:51;13.50;;;3.13;;
13689;SDS011;6917;52.194;9.894;2023-11-19T10:23:17;6.40;;;3.57;;
13689;SDS011;6917;52.194;9.894;2023-11-19T10:25:42;7.03;;;3.37;;
13689;SDS011;6917;52.194;9.894;2023-11-19T10:28:07;7.87;;;2.77;;
13689;SDS011;6917;52.194;9.894;2023-11-19T10:30:33;13.73;;;3.33;;
13689;SDS011;6917;52.194;9.894;2023-11-19T10:33:02;13.37;;;4.00;;
13689;SDS011;6917;52.194;9.894;2023-11-19T10:35:30;10.70;;;3.57;;
13689;SDS011;6917;52.194;9.894;2023-11-19T10:37:56;13.60;;;4.53;;
13689;SDS011;6917;52.194;9.894;2023-11-19T10:40:25;16.50;;;4.93;;
13689;SDS011;6917;52.194;9.894;2023-11-19T10:43:04;15.90;;;3.70;;
13689;SDS011;6917;52.194;9.894;2023-11-19T10:45:30;12.97;;;3.33;;
13689;SDS011;6917;52.194;9.894;2023-11-19T10:47:55;9.97;;;3.90;;
13689;SDS011;6917;52.194;9.894;2023-11-19T10:50:22;6.50;;;3.13;;
13689;SDS011;6917;52.194;9.894;2023-11-19T10:52:48;8.90;;;4.20;;
13689;SDS011;6917;52.194;9.894;2023-11-19T10:55:20;13.47;;;4.97;;
13689;SDS011;6917;52.194;9.894;2023-11-19T10:57:52;8.50;;;4.73;;
13689;SDS011;6917;52.194;9.894;2023-11-19T11:00:21;20.43;;;3.83;;
13689;SDS011;6917;52.194;9.894;2023-11-19T11:02:49;13.83;;;3.50;;
13689;SDS011;6917;52.194;9.894;2023-11-19T11:05:19;13.13;;;3.23;;
13689;SDS011;6917;52.194;9.894;2023-11-19T11:07:46;26.23;;;3.20;;
13689;SDS011;6917;52.194;9.894;2023-11-19T11:10:13;6.47;;;3.23;;
13689;SDS011;6917;52.194;9.894;2023-11-19T11:12:41;14.00;;;3.20;;
13689;SDS011;6917;52.194;9.894;2023-11-19T11:15:11;18.13;;;4.17;;
13689;SDS011;6917;52.194;9.894;2023-11-19T11:17:39;22.07;;;5.10;;
13689;SDS011;6917;52.194;9.894;2023-11-19T11:20:07;9.50;;;5.00;;
13689;SDS011;6917;52.194;9.894;2023-11-19T11:22:34;17.47;;;5.10;;
13689;SDS011;6917;52.194;9.894;2023-11-19T11:25:23;20.00;;;2.60;;
13689;SDS011;6917;52.194;9.894;2023-11-19T11:36:20;19.23;;;4.57;;
13689;SDS011;6917;52.194;9.894;2023-11-19T11:38:47;19.53;;;4.43;;
13689;SDS011;6917;52.194;9.894;2023-11-19T11:41:15;13.27;;;2.83;;
13689;SDS011;6917;52.194;9.894;2023-11-19T11:43:48;12.60;;;4.83;;
13689;SDS011;6917;52.194;9.894;2023-11-19T11:46:57;9.03;;;4.70;;
13689;SDS011;6917;52.194;9.894;2023-11-19T11:49:08;39.30;;;4.40;;
13689;SDS011;6917;52.194;9.894;2023-11-19T11:56:58;10.37;;;4.27;;
13689;SDS011;6917;52.194;9.894;2023-11-19T12:02:11;8.57;;;2.83;;
13689;SDS011;6917;52.194;9.894;2023-11-19T12:04:42;18.20;;;3.63;;
13689;SDS011;6917;52.194;9.894;2023-11-19T12:07:15;12.63;;;2.80;;
13689;SDS011;6917;52.194;9.894;2023-11-19T12:09:45;10.70;;;1.80;;
13689;SDS011;6917;52.194;9.894;2023-11-19T12:12:22;17.67;;;5.20;;
13689;SDS011;6917;52.194;9.894;2023-11-19T12:17:46;17.47;;;3.93;;
13689;SDS011;6917;52.194;9.894;2023-11-19T12:20:14;15.20;;;3.40;;
13689;SDS011;6917;52.194;9.894;2023-11-19T12:22:41;23.10;;;5.33;;
13689;SDS011;6917;52.194;9.894;2023-11-19T12:25:09;13.50;;;4.03;;
13689;SDS011;6917;52.194;9.894;2023-11-19T12:27:36;16.37;;;5.33;;
13689;SDS011;6917;52.194;9.894;2023-11-19T12:30:04;11.83;;;5.00;;
13689;SDS011;6917;52.194;9.894;2023-11-19T12:35:08;17.90;;;3.77;;
13689;SDS011;6917;52.194;9.894;2023-11-19T12:42:46;19.63;;;4.03;;
13689;SDS011;6917;52.194;9.894;2023-11-19T12:45:15;18.47;;;5.20;;
13689;SDS011;6917;52.194;9.894;2023-11-19T12:47:42;16.73;;;3.00;;
13689;SDS011;6917;52.194;9.894;2023-11-19T12:50:09;13.73;;;2.70;;
13689;SDS011;6917;52.194;9.894;2023-11-19T12:52:35;10.87;;;3.17;;
13689;SDS011;6917;52.194;9.894;2023-11-19T12:55:02;14.33;;;4.50;;
13689;SDS011;6917;52.194;9.894;2023-11-19T12:57:48;10.20;;;4.20;;
13689;SDS011;6917;52.194;9.894;2023-11-19T13:00:20;21.10;;;3.90;;
13689;SDS011;6917;52.194;9.894;2023-11-19T13:02:50;20.23;;;3.97;;
13689;SDS011;6917;52.194;9.894;2023-11-19T13:05:21;11.60;;;4.73;;
13689;SDS011;6917;52.194;9.894;2023-11-19T13:07:46;10.33;;;3.07;;
13689;SDS011;6917;52.194;9.894;2023-11-19T13:10:12;12.43;;;3.53;;
13689;SDS011;6917;52.194;9.894;2023-11-19T13:12:38;11.43;;;3.87;;
13689;SDS011;6917;52.194;9.894;2023-11-19T13:15:03;15.93;;;4.17;;
13689;SDS011;6917;52.194;9.894;2023-11-19T13:17:29;21.73;;;4.43;;
13689;SDS011;6917;52.194;9.894;2023-11-19T13:19:54;6.63;;;2.87;;
13689;SDS011;6917;52.194;9.894;2023-11-19T13:22:21;13.27;;;4.50;;
13689;SDS011;6917;52.194;9.894;2023-11-19T13:24:47;6.67;;;3.63;;
13689;SDS011;6917;52.194;9.894;2023-11-19T13:27:13;9.10;;;4.23;;
13689;SDS011;6917;52.194;9.894;2023-11-19T13:29:38;18.00;;;4.37;;
13689;SDS011;6917;52.194;9.894;2023-11-19T13:32:03;7.27;;;3.43;;
13689;SDS011;6917;52.194;9.894;2023-11-19T13:34:30;6.30;;;1.77;;
13689;SDS011;6917;52.194;9.894;2023-11-19T13:36:56;10.50;;;2.77;;
13689;SDS011;6917;52.194;9.894;2023-11-19T13:39:21;21.17;;;5.33;;
13689;SDS011;6917;52.194;9.894;2023-11-19T13:41:48;6.33;;;3.07;;
13689;SDS011;6917;52.194;9.894;2023-11-19T13:44:14;6.50;;;2.00;;
13689;SDS011;6917;52.194;9.894;2023-11-19T13:46:40;19.17;;;4.23;;
13689;SDS011;6917;52.194;9.894;2023-11-19T13:49:05;16.40;;;2.63;;
13689;SDS011;6917;52.194;9.894;2023-11-19T13:51:31;3.47;;;2.30;;
13689;SDS011;6917;52.194;9.894;2023-11-19T13:53:56;7.23;;;2.27;;
13689;SDS011;6917;52.194;9.894;2023-11-19T13:56:21;12.33;;;3.63;;
13689;SDS011;6917;52.194;9.894;2023-11-19T13:58:46;4.07;;;0.93;;
13689;SDS011;6917;52.194;9.894;2023-11-19T14:01:12;21.00;;;4.10;;
13689;SDS011;6917;52.194;9.894;2023-11-19T14:03:40;12.43;;;2.93;;
13689;SDS011;6917;52.194;9.894;2023-11-19T14:06:06;17.73;;;4.63;;
13689;SDS011;6917;52.194;9.894;2023-11-19T14:08:33;17.67;;;3.47;;
13689;SDS011;6917;52.194;9.894;2023-11-19T14:10:58;15.13;;;2.60;;
13689;SDS011;6917;52.194;9.894;2023-11-19T14:13:24;8.90;;;2.30;;
13689;SDS011;6917;52.194;9.894;2023-11-19T14:15:49;11.33;;;5.10;;
13689;SDS011;6917;52.194;9.894;2023-11-19T14:18:15;13.70;;;2.00;;
13689;SDS011;6917;52.194;9.894;2023-11-19T14:20:41;9.20;;;2.13;;
13689;SDS011;6917;52.194;9.894;2023-11-19T14:23:06;5.70;;;2.27;;
13689;SDS011;6917;52.194;9.894;2023-11-19T14:25:31;11.23;;;2.83;;
13689;SDS011;6917;52.194;9.894;2023-11-19T14:27:57;14.30;;;2.60;;
13689;SDS011;6917;52.194;9.894;2023-11-19T14:30:22;8.07;;;2.60;;
13689;SDS011;6917;52.194;9.894;2023-11-19T14:32:47;7.03;;;2.87;;
13689;SDS011;6917;52.194;9.894;2023-11-19T14:35:15;6.37;;;3.27;;
13689;SDS011;6917;52.194;9.894;2023-11-19T14:37:41;15.17;;;4.60;;
13689;SDS011;6917;52.194;9.894;2023-11-19T14:40:13;7.20;;;2.87;;
13689;SDS011;6917;52.194;9.894;2023-11-19T14:42:43;17.70;;;4.47;;
13689;SDS011;6917;52.194;9.894;2023-11-19T14:45:11;6.87;;;2.83;;
13689;SDS011;6917;52.194;9.894;2023-11-19T14:47:37;19.47;;;4.43;;
13689;SDS011;6917;52.194;9.894;2023-11-19T14:50:08;15.37;;;3.90;;
13689;SDS011;6917;52.194;9.894;2023-11-19T14:52:36;11.70;;;1.40;;
13689;SDS011;6917;52.194;9.894;2023-11-19T14:55:02;8.40;;;3.43;;
13689;SDS011;6917;52.194;9.894;2023-11-19T14:57:27;16.07;;;6.03;;
13689;SDS011;6917;52.194;9.894;2023-11-19T14:59:55;11.80;;;3.83;;
13689;SDS011;6917;52.194;9.894;2023-11-19T15:02:21;19.10;;;5.77;;
13689;SDS011;6917;52.194;9.894;2023-11-19T15:04:50;11.97;;;3.83;;
13689;SDS011;6917;52.194;9.894;2023-11-19T15:07:15;18.93;;;2.83;;
13689;SDS011;6917;52.194;9.894;2023-11-19T15:09:40;4.07;;;1.87;;
13689;SDS011;6917;52.194;9.894;2023-11-19T15:12:09;7.23;;;2.20;;
13689;SDS011;6917;52.194;9.894;2023-11-19T15:14:34;11.40;;;3.70;;
13689;SDS011;6917;52.194;9.894;2023-11-19T15:17:09;4.90;;;3.10;;
13689;SDS011;6917;52.194;9.894;2023-11-19T15:19:50;7.80;;;2.60;;